createdAt,value
2022-10-11T00:02:00.242Z,5.95
2022-10-11T00:04:27.796Z,6.85
2022-10-11T00:06:55.090Z,6.82
2022-10-11T00:09:22.541Z,6.97
2022-10-11T00:11:50.088Z,6.87
2022-10-11T00:14:17.409Z,6.57
2022-10-11T00:16:44.751Z,7.00
2022-10-11T00:19:12.302Z,6.20
2022-10-11T00:21:39.612Z,6.22
2022-10-11T00:24:07.034Z,6.32
2022-10-11T00:26:34.703Z,6.95
2022-10-11T00:29:02.236Z,6.45
2022-10-11T00:31:34.687Z,6.18
2022-10-11T00:34:03.350Z,6.07
2022-10-11T00:36:30.704Z,6.05
2022-10-11T00:38:59.006Z,5.43
2022-10-11T00:41:26.608Z,5.65
2022-10-11T00:44:29.644Z,6.20
2022-10-11T00:47:09.537Z,5.85
2022-10-11T00:49:59.915Z,5.85
2022-10-11T00:52:33.426Z,5.90
2022-10-11T00:55:14.757Z,5.43
2022-10-11T00:57:44.371Z,5.60
2022-10-11T01:00:13.041Z,5.32
2022-10-11T01:02:40.977Z,4.87
2022-10-11T01:05:28.735Z,5.53
2022-10-11T01:07:59.283Z,4.80
2022-10-11T01:10:27.801Z,5.68
2022-10-11T01:13:40.508Z,5.62
2022-10-11T01:16:15.549Z,4.85
2022-10-11T01:19:27.320Z,5.72
2022-10-11T01:22:06.567Z,4.80
2022-10-11T01:24:44.791Z,4.87
2022-10-11T01:27:38.856Z,5.07
2022-10-11T01:30:22.630Z,5.40
2022-10-11T01:33:05.221Z,5.43
2022-10-11T01:35:42.750Z,5.57
2022-10-11T01:38:14.548Z,5.22
2022-10-11T01:40:55.448Z,4.87
2022-10-11T01:43:23.964Z,5.43
2022-10-11T01:45:52.625Z,5.25
2022-10-11T01:48:20.301Z,5.05
2022-10-11T01:50:50.697Z,5.43
2022-10-11T01:53:22.920Z,5.20
2022-10-11T01:55:55.594Z,6.00
2022-10-11T01:58:32.459Z,5.25
2022-10-11T02:01:44.864Z,5.72
2022-10-11T02:04:19.473Z,5.35
2022-10-11T02:07:00.815Z,5.72
2022-10-11T02:09:43.184Z,5.78
2022-10-11T02:12:14.468Z,5.22
2022-10-11T02:14:44.288Z,5.20
2022-10-11T02:17:17.980Z,4.47
2022-10-11T02:19:48.172Z,5.07
2022-10-11T02:22:19.500Z,5.85
2022-10-11T02:24:50.364Z,5.55
2022-10-11T02:27:20.588Z,5.22
2022-10-11T02:29:48.473Z,5.03
2022-10-11T02:32:17.661Z,5.47
2022-10-11T02:34:49.116Z,5.53
2022-10-11T02:37:27.876Z,5.07
2022-10-11T02:40:07.237Z,5.37
2022-10-11T02:42:38.934Z,5.00
2022-10-11T02:45:13.022Z,5.60
2022-10-11T02:47:41.491Z,5.28
2022-10-11T02:50:11.504Z,5.32
2022-10-11T02:52:38.884Z,6.00
2022-10-11T02:55:07.512Z,6.40
2022-10-11T02:57:34.815Z,5.43
2022-10-11T03:00:02.400Z,5.72
2022-10-11T03:02:30.039Z,5.78
2022-10-11T03:04:57.583Z,4.95
2022-10-11T03:07:24.887Z,5.60
2022-10-11T03:09:52.524Z,5.70
2022-10-11T03:12:19.876Z,5.57
2022-10-11T03:14:47.188Z,5.78
2022-10-11T03:17:35.140Z,5.37
2022-10-11T03:20:02.074Z,5.85
2022-10-11T03:22:29.632Z,5.55
2022-10-11T03:25:02.513Z,5.15
2022-10-11T03:27:32.714Z,5.78
2022-10-11T03:30:00.298Z,5.25
2022-10-11T03:32:27.621Z,5.50
2022-10-11T03:34:55.261Z,5.87
2022-10-11T03:37:22.609Z,5.53
2022-10-11T03:39:50.265Z,6.12
2022-10-11T03:42:17.907Z,5.82
2022-10-11T03:44:45.245Z,6.00
2022-10-11T03:47:12.760Z,6.12
2022-10-11T03:49:43.614Z,5.95
2022-10-11T03:52:11.697Z,5.40
2022-10-11T03:54:39.000Z,6.72
2022-10-11T03:57:07.239Z,6.25
2022-10-11T03:59:34.548Z,5.70
2022-10-11T04:02:02.008Z,5.65
2022-10-11T04:04:29.633Z,5.55
2022-10-11T04:06:57.020Z,6.12
2022-10-11T04:09:24.453Z,6.53
2022-10-11T04:11:52.106Z,6.68
2022-10-11T04:14:19.408Z,6.00
2022-10-11T04:16:46.715Z,7.25
2022-10-11T04:19:14.271Z,6.05
2022-10-11T04:21:41.562Z,6.15
2022-10-11T04:24:11.103Z,6.12
2022-10-11T04:26:38.653Z,6.00
2022-10-11T04:29:06.119Z,6.45
2022-10-11T04:31:33.441Z,7.07
2022-10-11T04:34:01.135Z,7.00
2022-10-11T04:36:28.509Z,9.05
2022-10-11T04:38:56.234Z,10.13
2022-10-11T04:41:23.823Z,23.35
2022-10-11T04:43:51.116Z,20.75
2022-10-11T04:46:18.414Z,18.20
2022-10-11T04:48:45.971Z,14.27
2022-10-11T04:51:13.255Z,11.98
2022-10-11T04:53:40.548Z,9.02
2022-10-11T04:56:11.537Z,10.15
2022-10-11T04:58:40.944Z,9.82
2022-10-11T05:01:09.699Z,11.55
2022-10-11T05:03:37.746Z,11.52
2022-10-11T05:06:06.305Z,12.05
2022-10-11T05:08:34.125Z,10.63
2022-10-11T05:11:04.027Z,11.18
2022-10-11T05:13:32.059Z,10.68
2022-10-11T05:15:59.622Z,10.52
2022-10-11T05:18:27.105Z,10.38
2022-10-11T05:21:23.838Z,9.70
2022-10-11T05:23:52.855Z,9.90
2022-10-11T05:26:20.448Z,9.43
2022-10-11T05:28:48.150Z,10.00
2022-10-11T05:31:16.233Z,10.23
2022-10-11T05:33:43.577Z,14.77
2022-10-11T05:36:11.404Z,29.20
2022-10-11T05:38:39.455Z,25.60
2022-10-11T05:41:09.181Z,21.30
2022-10-11T05:43:36.516Z,20.55
2022-10-11T05:46:04.363Z,21.70
2022-10-11T05:48:31.805Z,21.23
2022-10-11T05:51:03.537Z,20.85
2022-10-11T05:53:31.452Z,17.62
2022-10-11T05:55:59.546Z,15.77
2022-10-11T05:58:26.863Z,13.95
2022-10-11T06:00:56.696Z,14.68
2022-10-11T06:03:24.304Z,14.52
2022-10-11T06:05:56.501Z,14.77
2022-10-11T06:08:24.665Z,13.73
2022-10-11T06:10:52.044Z,12.77
2022-10-11T06:13:19.330Z,13.07
2022-10-11T06:15:46.875Z,14.07
2022-10-11T06:18:15.150Z,13.38
2022-10-11T06:20:42.464Z,14.73
2022-10-11T06:23:10.035Z,14.02
2022-10-11T06:25:37.345Z,13.95
2022-10-11T06:28:04.723Z,14.23
2022-10-11T06:30:32.292Z,13.82
2022-10-11T06:33:04.472Z,14.52
2022-10-11T06:35:32.470Z,13.52
2022-10-11T06:37:59.765Z,13.10
2022-10-11T06:40:27.104Z,14.70
2022-10-11T06:42:54.753Z,14.13
2022-10-11T06:45:22.278Z,14.02
2022-10-11T06:47:49.571Z,13.57
2022-10-11T06:50:25.879Z,13.18
2022-10-11T06:53:03.147Z,13.02
2022-10-11T06:55:31.908Z,12.18
2022-10-11T06:57:59.193Z,11.57
2022-10-11T07:00:26.851Z,9.35
2022-10-11T07:02:54.429Z,9.60
2022-10-11T07:05:21.727Z,9.95
2022-10-11T07:07:49.015Z,9.65
2022-10-11T07:10:16.633Z,12.95
2022-10-11T07:12:44.868Z,15.00
2022-10-11T07:15:12.270Z,15.65
2022-10-11T07:17:39.856Z,15.07
2022-10-11T07:20:07.564Z,14.85
2022-10-11T07:22:34.988Z,14.35
2022-10-11T07:25:02.958Z,14.15
2022-10-11T07:27:30.252Z,13.77
2022-10-11T07:29:57.681Z,11.45
2022-10-11T07:32:25.288Z,9.43
2022-10-11T07:34:52.550Z,8.02
2022-10-11T07:37:20.299Z,8.10
2022-10-11T07:39:49.147Z,7.97
2022-10-11T07:42:16.430Z,7.65
2022-10-11T07:44:43.768Z,7.82
2022-10-11T07:47:11.659Z,8.90
2022-10-11T07:49:38.996Z,7.55
2022-10-11T07:52:06.331Z,7.93
2022-10-11T07:54:33.868Z,8.10
2022-10-11T07:57:01.168Z,7.75
2022-10-11T07:59:28.557Z,7.53
2022-10-11T08:01:56.188Z,7.12
2022-10-11T08:04:23.774Z,8.20
2022-10-11T08:06:53.304Z,8.25
2022-10-11T08:09:20.862Z,7.87
2022-10-11T08:11:48.445Z,7.90
2022-10-11T08:14:15.821Z,7.85
2022-10-11T08:16:43.098Z,8.55
2022-10-11T08:19:10.829Z,7.57
2022-10-11T08:21:38.149Z,7.37
2022-10-11T08:24:06.086Z,7.30
2022-10-11T08:26:33.692Z,7.50
2022-10-11T08:29:04.343Z,8.15
2022-10-11T08:31:32.862Z,7.80
2022-10-11T08:34:00.870Z,8.40
2022-10-11T08:36:28.223Z,7.97
2022-10-11T08:38:55.527Z,8.43
2022-10-11T08:41:27.161Z,7.45
2022-10-11T08:43:57.519Z,7.93
2022-10-11T08:46:28.724Z,8.70
2022-10-11T08:48:56.135Z,8.38
2022-10-11T08:51:38.540Z,8.23
2022-10-11T08:54:31.170Z,9.05
2022-10-11T08:56:58.621Z,9.05
2022-10-11T08:59:35.089Z,8.90
2022-10-11T09:02:11.151Z,8.20
2022-10-11T09:04:39.229Z,8.57
2022-10-11T09:07:44.916Z,8.70
2022-10-11T09:10:31.193Z,8.30
2022-10-11T09:13:31.442Z,9.05
2022-10-11T09:16:10.916Z,8.38
2022-10-11T09:18:47.136Z,8.40
2022-10-11T09:21:48.364Z,8.23
2022-10-11T09:24:18.627Z,9.60
2022-10-11T09:26:52.134Z,9.95
2022-10-11T09:29:28.736Z,9.60
2022-10-11T09:31:57.323Z,9.65
2022-10-11T09:34:27.605Z,10.13
2022-10-11T09:37:03.766Z,10.32
2022-10-11T09:39:36.661Z,9.95
2022-10-11T09:42:09.611Z,10.70
2022-10-11T09:44:49.583Z,10.35
2022-10-11T09:47:27.542Z,11.25
2022-10-11T09:50:06.496Z,11.05
2022-10-11T09:52:33.866Z,11.60
2022-10-11T09:55:03.264Z,11.90
2022-10-11T09:57:32.599Z,10.65
2022-10-11T10:00:01.717Z,9.68
2022-10-11T10:02:48.768Z,10.70
2022-10-11T10:05:27.639Z,10.93
2022-10-11T10:08:09.848Z,10.90
2022-10-11T10:10:38.974Z,10.18
2022-10-11T10:13:29.085Z,10.63
2022-10-11T10:16:01.158Z,11.90
2022-10-11T10:18:37.377Z,11.12
2022-10-11T10:21:09.172Z,11.00
2022-10-11T10:23:37.336Z,11.02
2022-10-11T10:26:17.203Z,10.77
2022-10-11T10:29:04.073Z,10.48
2022-10-11T10:32:14.240Z,10.70
2022-10-11T10:35:37.228Z,10.82
2022-10-11T10:38:26.358Z,10.30
2022-10-11T10:40:58.030Z,10.93
2022-10-11T10:43:36.214Z,11.77
2022-10-11T10:46:18.091Z,11.32
2022-10-11T10:49:23.601Z,10.35
2022-10-11T10:51:50.899Z,10.48
2022-10-11T10:54:24.835Z,11.02
2022-10-11T10:57:31.567Z,11.43
2022-10-11T11:00:04.157Z,11.45
2022-10-11T11:02:59.590Z,11.00
2022-10-11T11:05:33.818Z,11.77
2022-10-11T11:08:15.336Z,11.02
2022-10-11T11:10:56.046Z,11.60
2022-10-11T11:13:41.857Z,13.60
2022-10-11T11:16:26.345Z,12.32
2022-10-11T11:18:57.139Z,11.63
2022-10-11T11:21:44.896Z,11.10
2022-10-11T11:25:05.844Z,12.15
2022-10-11T11:27:40.714Z,12.43
2022-10-11T11:30:17.275Z,14.68
2022-10-11T11:33:05.407Z,12.35
2022-10-11T11:35:53.815Z,12.07
2022-10-11T11:38:40.702Z,11.57
2022-10-11T11:41:14.649Z,12.10
2022-10-11T11:44:25.112Z,11.40
2022-10-11T11:47:01.688Z,11.70
2022-10-11T11:49:34.334Z,11.32
2022-10-11T11:52:04.301Z,11.27
2022-10-11T11:55:13.139Z,11.82
2022-10-11T11:57:52.459Z,10.35
2022-10-11T12:00:22.490Z,10.40
2022-10-11T12:02:56.248Z,9.77
2022-10-11T12:05:27.487Z,10.95
2022-10-11T12:08:08.314Z,10.30
2022-10-11T12:10:35.692Z,10.95
2022-10-11T12:13:09.284Z,10.68
2022-10-11T12:15:37.010Z,11.65
2022-10-11T12:18:15.485Z,11.45
2022-10-11T12:20:44.014Z,11.05
2022-10-11T12:23:29.969Z,11.73
2022-10-11T12:26:19.274Z,11.80
2022-10-11T12:29:05.847Z,10.52
2022-10-11T12:31:35.830Z,12.98
2022-10-11T12:34:09.523Z,11.68
2022-10-11T12:36:39.520Z,13.02
2022-10-11T12:39:19.314Z,11.60
2022-10-11T12:41:49.233Z,11.70
2022-10-11T12:44:26.269Z,11.32
2022-10-11T12:46:53.773Z,11.48
2022-10-11T12:49:31.071Z,10.90
2022-10-11T12:52:05.594Z,11.90
2022-10-11T12:54:45.258Z,11.95
2022-10-11T12:57:49.597Z,12.52
2022-10-11T13:00:32.506Z,11.93
2022-10-11T13:03:05.332Z,12.65
2022-10-11T13:05:43.211Z,12.32
2022-10-11T13:08:16.660Z,12.07
2022-10-11T13:10:45.351Z,12.75
2022-10-11T13:13:24.966Z,12.93
2022-10-11T13:15:54.529Z,12.93
2022-10-11T13:18:24.230Z,12.70
2022-10-11T13:20:51.527Z,13.43
2022-10-11T13:23:25.069Z,12.07
2022-10-11T13:25:52.957Z,12.23
2022-10-11T13:28:21.343Z,12.93
2022-10-11T13:30:54.983Z,12.30
2022-10-11T13:33:32.113Z,12.93
2022-10-11T13:35:59.855Z,13.07
2022-10-11T13:38:34.507Z,12.40
2022-10-11T13:41:04.695Z,12.25
2022-10-11T13:43:32.602Z,12.10
2022-10-11T13:46:01.545Z,12.13
2022-10-11T13:48:31.850Z,12.32
2022-10-11T13:51:07.158Z,13.02
2022-10-11T13:53:34.602Z,12.10
2022-10-11T13:56:05.507Z,13.68
2022-10-11T13:58:40.391Z,21.40
2022-10-11T14:01:17.315Z,17.08
2022-10-11T14:03:48.479Z,15.40
2022-10-11T14:06:15.811Z,15.65
2022-10-11T14:08:44.435Z,15.52
2022-10-11T14:11:13.516Z,13.65
2022-10-11T14:13:44.391Z,13.05
2022-10-11T14:16:21.023Z,13.27
2022-10-11T14:18:50.712Z,12.00
2022-10-11T14:21:35.432Z,11.93
2022-10-11T14:24:08.047Z,12.65
2022-10-11T14:26:42.215Z,12.02
2022-10-11T14:29:17.983Z,12.23
2022-10-11T14:31:45.563Z,13.00
2022-10-11T14:34:20.883Z,12.48
2022-10-11T14:36:49.038Z,12.75
2022-10-11T14:39:19.341Z,12.63
2022-10-11T14:41:47.098Z,12.48
2022-10-11T14:44:16.621Z,12.23
2022-10-11T14:46:45.461Z,12.48
2022-10-11T14:49:22.060Z,12.90
2022-10-11T14:51:51.026Z,12.18
2022-10-11T14:54:24.180Z,11.77
2022-10-11T14:56:53.256Z,12.10
2022-10-11T14:59:22.991Z,11.63
2022-10-11T15:01:54.232Z,12.18
2022-10-11T15:04:23.635Z,14.02
2022-10-11T15:06:52.172Z,13.65
2022-10-11T15:09:23.123Z,14.90
2022-10-11T15:11:52.628Z,12.67
2022-10-11T15:14:20.162Z,13.90
2022-10-11T15:16:47.635Z,14.77
2022-10-11T15:19:17.720Z,15.05
2022-10-11T15:21:45.583Z,15.43
2022-10-11T15:24:13.091Z,14.65
2022-10-11T15:26:40.817Z,16.00
2022-10-11T15:29:11.719Z,15.90
2022-10-11T15:31:39.572Z,15.57
2022-10-11T15:34:07.265Z,15.80
2022-10-11T15:36:34.624Z,15.55
2022-10-11T15:39:01.914Z,15.38
2022-10-11T15:41:29.490Z,15.27
2022-10-11T15:43:56.824Z,16.40
2022-10-11T15:46:24.168Z,15.13
2022-10-11T15:48:52.256Z,16.60
2022-10-11T15:51:19.595Z,20.12
2022-10-11T15:53:47.042Z,19.58
2022-10-11T15:56:18.611Z,17.87
2022-10-11T15:58:46.089Z,17.70
2022-10-11T16:01:19.358Z,18.55
2022-10-11T16:03:48.979Z,20.58
2022-10-11T16:06:17.368Z,25.25
2022-10-11T16:08:44.695Z,24.98
2022-10-11T16:11:12.691Z,26.48
2022-10-11T16:13:40.404Z,26.85
2022-10-11T16:16:09.681Z,30.50
2022-10-11T16:18:37.876Z,33.70
2022-10-11T16:21:08.994Z,33.05
2022-10-11T16:23:38.207Z,29.67
2022-10-11T16:26:08.556Z,29.15
2022-10-11T16:28:36.443Z,42.53
2022-10-11T16:31:08.545Z,47.45
2022-10-11T16:33:45.240Z,52.33
2022-10-11T16:36:36.463Z,42.75
2022-10-11T16:39:07.794Z,42.55
2022-10-11T16:41:35.217Z,37.53
2022-10-11T16:44:03.429Z,29.42
2022-10-11T16:46:32.499Z,26.73
2022-10-11T16:48:59.842Z,25.40
2022-10-11T16:51:27.163Z,27.80
2022-10-11T16:53:54.908Z,28.20
2022-10-11T16:56:24.103Z,25.35
2022-10-11T16:58:54.237Z,26.58
2022-10-11T17:01:22.031Z,26.90
2022-10-11T17:03:50.002Z,26.17
2022-10-11T17:06:18.257Z,26.70
2022-10-11T17:08:46.268Z,26.70
2022-10-11T17:11:13.659Z,24.98
2022-10-11T17:13:40.961Z,24.23
2022-10-11T17:16:08.919Z,24.23
2022-10-11T17:18:36.593Z,22.30
2022-10-11T17:21:06.630Z,23.17
2022-10-11T17:23:35.514Z,23.58
2022-10-11T17:26:11.215Z,23.85
2022-10-11T17:28:39.422Z,22.23
2022-10-11T17:31:07.817Z,22.35
2022-10-11T17:33:35.632Z,22.13
2022-10-11T17:36:13.203Z,20.90
2022-10-11T17:38:40.503Z,19.08
2022-10-11T17:41:08.976Z,19.05
2022-10-11T17:43:37.133Z,18.02
2022-10-11T17:46:06.332Z,17.70
2022-10-11T17:48:36.522Z,18.77
2022-10-11T17:51:07.382Z,18.05
2022-10-11T17:53:35.622Z,16.98
2022-10-11T17:56:07.832Z,16.15
2022-10-11T17:58:35.592Z,14.45
2022-10-11T18:01:08.887Z,15.45
2022-10-11T18:03:37.319Z,14.87
2022-10-11T18:06:06.449Z,15.70
2022-10-11T18:08:39.981Z,15.23
2022-10-11T18:11:13.096Z,14.45
2022-10-11T18:13:45.564Z,15.38
2022-10-11T18:16:14.734Z,15.93
2022-10-11T18:18:42.369Z,15.20
2022-10-11T18:21:10.041Z,14.95
2022-10-11T18:23:38.338Z,20.10
2022-10-11T18:26:13.555Z,25.83
2022-10-11T18:28:41.347Z,22.10
2022-10-11T18:31:13.335Z,19.02
2022-10-11T18:33:42.264Z,18.25
2022-10-11T18:36:10.953Z,21.20
2022-10-11T18:38:39.653Z,21.62
2022-10-11T18:41:08.814Z,23.98
2022-10-11T18:43:36.984Z,37.65
2022-10-11T18:46:12.623Z,25.42
2022-10-11T18:48:41.996Z,22.08
2022-10-11T18:51:12.404Z,22.15
2022-10-11T18:53:40.314Z,24.25
2022-10-11T18:56:09.610Z,23.73
2022-10-11T18:58:38.832Z,21.08
2022-10-11T19:01:17.631Z,21.83
2022-10-11T19:04:52.525Z,18.77
2022-10-11T19:07:20.901Z,18.92
2022-10-11T19:09:49.471Z,18.60
2022-10-11T19:12:17.280Z,18.58
2022-10-11T19:14:44.841Z,16.87
2022-10-11T19:17:12.664Z,17.40
2022-10-11T19:19:39.975Z,15.65
2022-10-11T19:22:07.565Z,15.88
2022-10-11T19:24:34.900Z,16.30
2022-10-11T19:27:03.119Z,15.45
2022-10-11T19:29:31.429Z,14.25
2022-10-11T19:32:00.104Z,13.95
2022-10-11T19:34:28.047Z,12.75
2022-10-11T19:36:56.510Z,12.95
2022-10-11T19:39:24.810Z,10.95
2022-10-11T19:41:52.579Z,11.23
2022-10-11T19:44:20.331Z,11.12
2022-10-11T19:46:52.474Z,11.05
2022-10-11T19:49:25.715Z,11.90
2022-10-11T19:51:53.736Z,12.23
2022-10-11T19:54:21.295Z,12.95
2022-10-11T19:56:48.704Z,13.85
2022-10-11T19:59:16.268Z,13.75
2022-10-11T20:01:47.914Z,14.07
2022-10-11T20:04:39.594Z,14.18
2022-10-11T20:07:04.497Z,13.85
2022-10-11T20:09:32.058Z,13.90
2022-10-11T20:11:59.393Z,13.62
2022-10-11T20:14:26.709Z,12.40
2022-10-11T20:16:54.268Z,10.98
2022-10-11T20:19:26.202Z,11.55
2022-10-11T20:21:55.447Z,9.93
2022-10-11T20:24:23.010Z,10.02
2022-10-11T20:26:50.302Z,10.68
2022-10-11T20:29:18.057Z,10.13
2022-10-11T20:31:45.350Z,10.40
2022-10-11T20:34:13.232Z,10.65
2022-10-11T20:36:41.209Z,11.32
2022-10-11T20:39:09.636Z,10.88
2022-10-11T20:41:39.975Z,11.73
2022-10-11T20:44:08.969Z,10.23
2022-10-11T20:46:38.311Z,10.20
2022-10-11T20:49:08.303Z,10.63
2022-10-11T20:51:37.185Z,9.88
2022-10-11T20:54:04.927Z,10.15
2022-10-11T20:56:33.765Z,10.63
2022-10-11T20:59:01.445Z,10.23
2022-10-11T21:01:34.554Z,9.77
2022-10-11T21:04:02.679Z,9.98
2022-10-11T21:06:31.108Z,9.43
2022-10-11T21:08:59.415Z,9.52
2022-10-11T21:11:28.511Z,10.23
2022-10-11T21:13:57.039Z,9.38
2022-10-11T21:16:25.171Z,10.13
2022-10-11T21:18:54.363Z,10.30
2022-10-11T21:21:23.788Z,9.80
2022-10-11T21:23:55.482Z,10.48
2022-10-11T21:26:23.081Z,9.68
2022-10-11T21:28:50.451Z,9.23
2022-10-11T21:31:19.693Z,10.07
2022-10-11T21:33:47.280Z,9.82
2022-10-11T21:36:17.123Z,9.60
2022-10-11T21:38:44.638Z,9.48
2022-10-11T21:41:15.500Z,8.55
2022-10-11T21:43:42.978Z,9.38
2022-10-11T21:46:20.364Z,8.90
2022-10-11T21:48:49.932Z,9.13
2022-10-11T21:51:27.745Z,9.15
2022-10-11T21:53:57.411Z,9.13
2022-10-11T21:56:24.686Z,9.18
2022-10-11T21:58:51.981Z,9.15
2022-10-11T22:01:21.242Z,9.60
2022-10-11T22:03:48.896Z,9.30
2022-10-11T22:06:16.878Z,9.27
2022-10-11T22:08:44.322Z,8.95
2022-10-11T22:11:12.131Z,9.32
2022-10-11T22:13:39.387Z,10.02
2022-10-11T22:16:09.280Z,10.55
2022-10-11T22:18:37.258Z,10.38
2022-10-11T22:21:07.003Z,10.18
2022-10-11T22:23:34.587Z,10.65
2022-10-11T22:26:07.001Z,9.95
2022-10-11T22:28:35.008Z,10.43
2022-10-11T22:31:05.188Z,9.80
2022-10-11T22:33:32.841Z,11.38
2022-10-11T22:36:02.063Z,10.35
2022-10-11T22:38:29.749Z,10.48
2022-10-11T22:40:59.830Z,10.25
2022-10-11T22:43:27.204Z,10.45
2022-10-11T22:45:54.769Z,9.95
2022-10-11T22:48:22.132Z,10.90
2022-10-11T22:50:49.466Z,10.60
2022-10-11T22:53:17.084Z,10.48
2022-10-11T22:55:44.629Z,10.55
2022-10-11T22:58:11.962Z,11.12
2022-10-11T23:00:39.594Z,10.27
2022-10-11T23:03:09.619Z,11.18
2022-10-11T23:05:36.938Z,10.70
2022-10-11T23:08:05.845Z,11.02
2022-10-11T23:10:33.132Z,11.50
2022-10-11T23:13:00.424Z,10.90
2022-10-11T23:15:27.984Z,11.20
2022-10-11T23:17:55.279Z,10.32
2022-10-11T23:20:22.558Z,12.48
2022-10-11T23:22:50.115Z,11.18
2022-10-11T23:25:17.389Z,11.63
2022-10-11T23:27:44.659Z,11.10
2022-10-11T23:30:12.947Z,12.05
2022-10-11T23:32:40.254Z,11.12
2022-10-11T23:35:08.052Z,10.73
2022-10-11T23:37:35.975Z,11.45
2022-10-11T23:40:04.144Z,11.18
2022-10-11T23:42:31.432Z,10.95
2022-10-11T23:44:59.220Z,11.60
2022-10-11T23:47:26.500Z,12.15
2022-10-11T23:49:53.802Z,11.43
2022-10-11T23:52:21.484Z,11.65
2022-10-11T23:54:48.866Z,11.88
2022-10-11T23:57:16.224Z,11.98
2022-10-11T23:59:43.787Z,11.85
